Time;durP1;ratioP1;P1;durP2;ratioP2;P2;SDS_P1;SDS_P2;PMS_P1;PMS_P2;Temp;Humidity;BMP_temperature;BMP_pressure;BME280_temperature;BME280_humidity;BME280_pressure;Samples;Min_cycle;Max_cycle;Signal;HPM_P1;HPM_P2
2022/10/08 00:01:22;;;;;;;5.75;2.90;;;;;;;;;;5031589;28;20032;-80
2022/10/08 00:03:51;;;;;;;7.60;3.10;;;;;;;;;;5031185;28;20035;-79
2022/10/08 00:06:20;;;;;;;8.02;3.15;;;;;;;;;;5031364;28;20025;-79
2022/10/08 00:08:54;;;;;;;6.47;3.05;;;;;;;;;;5030724;28;20030;-78
2022/10/08 00:11:32;;;;;;;7.72;3.22;;;;;;;;;;5031354;28;20083;-78
2022/10/08 00:13:57;;;;;;;6.43;2.95;;;;;;;;;;5031083;28;20370;-80
2022/10/08 00:16:26;;;;;;;7.18;3.25;;;;;;;;;;5031002;28;20056;-82
2022/10/08 00:18:54;;;;;;;9.27;3.15;;;;;;;;;;5030286;28;20025;-78
2022/10/08 00:21:29;;;;;;;7.70;3.28;;;;;;;;;;5030980;28;20048;-79
2022/10/08 00:23:56;;;;;;;8.32;3.17;;;;;;;;;;5030581;28;20026;-80
2022/10/08 00:26:25;;;;;;;6.90;3.00;;;;;;;;;;5030963;28;20026;-79
2022/10/08 00:28:53;;;;;;;10.38;3.47;;;;;;;;;;5030918;28;20555;-79
2022/10/08 00:31:22;;;;;;;7.45;3.60;;;;;;;;;;5030864;28;20025;-77
2022/10/08 00:33:49;;;;;;;6.40;3.03;;;;;;;;;;5030792;28;20021;-78
2022/10/08 00:36:14;;;;;;;8.68;3.25;;;;;;;;;;5030571;28;20087;-77
2022/10/08 00:38:40;;;;;;;7.40;3.22;;;;;;;;;;5030262;28;20469;-76
2022/10/08 00:41:07;;;;;;;7.43;3.20;;;;;;;;;;5030255;28;20053;-74
2022/10/08 00:43:53;;;;;;;8.07;3.40;;;;;;;;;;5030380;28;20064;-75
2022/10/08 00:46:24;;;;;;;9.55;3.28;;;;;;;;;;5030350;28;20033;-77
2022/10/08 00:49:03;;;;;;;8.43;3.10;;;;;;;;;;5030349;28;20056;-77
2022/10/08 00:51:31;;;;;;;7.18;3.50;;;;;;;;;;5030567;28;20100;-75
2022/10/08 00:53:57;;;;;;;6.40;3.33;;;;;;;;;;5030113;28;20047;-77
2022/10/08 00:56:23;;;;;;;8.35;3.40;;;;;;;;;;5030278;28;20037;-80
2022/10/08 00:58:50;;;;;;;7.20;3.42;;;;;;;;;;5029817;28;20025;-78
2022/10/08 01:01:16;;;;;;;6.38;3.45;;;;;;;;;;5030086;28;20052;-79
2022/10/08 01:03:41;;;;;;;7.53;3.25;;;;;;;;;;5030202;28;20033;-79
2022/10/08 01:06:29;;;;;;;5.78;3.35;;;;;;;;;;5030505;28;20037;-82
2022/10/08 01:09:05;;;;;;;7.53;3.28;;;;;;;;;;5030045;28;20056;-80
2022/10/08 01:12:15;;;;;;;5.32;3.17;;;;;;;;;;5030158;28;20374;-79
2022/10/08 01:14:53;;;;;;;7.30;3.40;;;;;;;;;;4998957;28;20523;-82
2022/10/08 01:17:25;;;;;;;6.85;3.35;;;;;;;;;;5029858;28;20021;-82
2022/10/08 01:20:09;;;;;;;8.50;3.38;;;;;;;;;;5029713;28;20116;-81
2022/10/08 01:22:53;;;;;;;7.03;3.30;;;;;;;;;;5030333;28;20029;-81
2022/10/08 01:25:32;;;;;;;6.18;3.47;;;;;;;;;;5029964;28;20025;-82
2022/10/08 01:28:24;;;;;;;9.98;3.70;;;;;;;;;;5029859;28;20033;-76
2022/10/08 01:30:58;;;;;;;9.95;3.67;;;;;;;;;;5031447;28;20025;-78
2022/10/08 01:33:30;;;;;;;5.97;3.40;;;;;;;;;;5033868;28;20080;-77
2022/10/08 01:35:59;;;;;;;7.03;3.90;;;;;;;;;;5033790;28;20022;-77
2022/10/08 01:38:29;;;;;;;8.68;3.80;;;;;;;;;;5033633;28;20029;-76
2022/10/08 01:40:58;;;;;;;5.85;3.40;;;;;;;;;;5034064;28;20052;-78
2022/10/08 01:43:27;;;;;;;6.95;3.72;;;;;;;;;;5034046;28;20044;-79
2022/10/08 01:45:59;;;;;;;7.22;3.65;;;;;;;;;;5033934;28;20025;-80
2022/10/08 01:48:32;;;;;;;6.93;3.90;;;;;;;;;;5033472;28;20033;-80
2022/10/08 01:51:22;;;;;;;10.88;3.97;;;;;;;;;;5034021;28;20031;-80
2022/10/08 01:53:49;;;;;;;8.48;3.65;;;;;;;;;;5033556;28;20029;-78
2022/10/08 01:56:27;;;;;;;5.97;3.60;;;;;;;;;;5033659;28;20500;-78
2022/10/08 01:58:53;;;;;;;8.55;3.95;;;;;;;;;;5033191;28;20037;-81
2022/10/08 02:01:31;;;;;;;6.80;3.90;;;;;;;;;;5033495;28;20477;-79
2022/10/08 02:06:46;;;;;;;6.65;3.95;;;;;;;;;;5033407;28;20091;-77
2022/10/08 02:09:13;;;;;;;7.85;3.97;;;;;;;;;;5032978;28;20025;-77
2022/10/08 02:11:38;;;;;;;8.80;3.78;;;;;;;;;;5033264;28;20029;-77
2022/10/08 02:14:05;;;;;;;8.63;4.30;;;;;;;;;;5033054;28;20052;-75
2022/10/08 02:16:34;;;;;;;7.00;3.60;;;;;;;;;;5033245;28;20025;-80
2022/10/08 02:19:22;;;;;;;7.07;3.67;;;;;;;;;;5032868;28;20098;-80
2022/10/08 02:21:51;;;;;;;7.35;3.33;;;;;;;;;;5032989;28;20100;-79
2022/10/08 02:24:21;;;;;;;7.28;3.60;;;;;;;;;;5032639;28;20025;-79
2022/10/08 02:26:50;;;;;;;7.13;3.58;;;;;;;;;;5015284;28;20032;-78
2022/10/08 02:29:27;;;;;;;10.38;3.75;;;;;;;;;;5032520;28;20032;-80
2022/10/08 02:32:01;;;;;;;9.13;3.85;;;;;;;;;;5033001;28;20017;-78
2022/10/08 02:34:36;;;;;;;6.18;3.78;;;;;;;;;;5032781;28;20060;-79
2022/10/08 02:37:20;;;;;;;5.80;3.42;;;;;;;;;;5015191;28;20029;-80
2022/10/08 02:39:51;;;;;;;7.93;3.65;;;;;;;;;;5032139;28;20033;-79
2022/10/08 02:42:21;;;;;;;9.07;3.88;;;;;;;;;;5014473;28;20132;-80
2022/10/08 02:44:56;;;;;;;9.90;4.00;;;;;;;;;;5032451;28;20056;-76
2022/10/08 02:47:25;;;;;;;7.32;4.03;;;;;;;;;;5032517;28;20029;-81
2022/10/08 02:49:56;;;;;;;8.88;3.60;;;;;;;;;;5014511;28;20021;-79
2022/10/08 02:52:26;;;;;;;6.68;3.90;;;;;;;;;;5032696;28;20025;-80
2022/10/08 02:54:53;;;;;;;4.85;3.38;;;;;;;;;;5032389;28;20713;-79
2022/10/08 02:57:34;;;;;;;7.78;4.07;;;;;;;;;;5032517;28;20030;-79
2022/10/08 02:59:59;;;;;;;8.00;3.60;;;;;;;;;;5032028;28;20057;-77
2022/10/08 03:02:38;;;;;;;7.20;3.85;;;;;;;;;;5032623;28;20065;-80
2022/10/08 03:05:11;;;;;;;8.25;3.80;;;;;;;;;;5032424;28;20072;-78
2022/10/08 03:07:37;;;;;;;9.00;3.85;;;;;;;;;;5032462;28;20101;-79
2022/10/08 03:10:05;;;;;;;7.90;3.85;;;;;;;;;;5031990;28;20057;-80
2022/10/08 03:12:31;;;;;;;7.38;3.83;;;;;;;;;;5032295;28;20104;-79
2022/10/08 03:14:56;;;;;;;7.82;3.78;;;;;;;;;;5031988;28;20455;-80
2022/10/08 03:17:26;;;;;;;5.55;3.60;;;;;;;;;;5032071;28;20029;-77
2022/10/08 03:19:53;;;;;;;9.15;3.63;;;;;;;;;;5031701;28;20034;-78
2022/10/08 03:22:18;;;;;;;6.57;3.45;;;;;;;;;;5014527;28;20377;-77
2022/10/08 03:24:44;;;;;;;8.05;3.70;;;;;;;;;;5032342;28;20038;-77
2022/10/08 03:27:09;;;;;;;8.63;4.00;;;;;;;;;;5032250;28;20037;-78
2022/10/08 03:29:34;;;;;;;6.47;3.72;;;;;;;;;;5032034;28;20045;-76
2022/10/08 03:32:00;;;;;;;9.15;4.10;;;;;;;;;;5031861;28;20040;-76
2022/10/08 03:34:25;;;;;;;8.93;4.22;;;;;;;;;;5031801;28;20029;-76
2022/10/08 03:36:51;;;;;;;9.20;4.03;;;;;;;;;;5031681;28;20083;-80
2022/10/08 03:39:16;;;;;;;7.45;4.00;;;;;;;;;;5031502;28;20457;-79
2022/10/08 03:41:42;;;;;;;6.15;3.90;;;;;;;;;;5031562;28;20049;-80
2022/10/08 03:44:09;;;;;;;6.93;4.10;;;;;;;;;;5031777;28;20437;-76
2022/10/08 03:46:35;;;;;;;5.63;3.88;;;;;;;;;;5031372;28;20025;-76
2022/10/08 03:49:00;;;;;;;9.02;4.13;;;;;;;;;;5031556;28;20113;-78
2022/10/08 03:51:26;;;;;;;8.77;3.80;;;;;;;;;;5031319;28;20052;-76
2022/10/08 03:53:51;;;;;;;7.85;3.83;;;;;;;;;;5030644;28;20033;-77
2022/10/08 03:56:19;;;;;;;9.88;4.47;;;;;;;;;;5031207;28;20029;-79
2022/10/08 03:58:51;;;;;;;7.85;4.05;;;;;;;;;;5031387;28;20346;-78
2022/10/08 04:01:16;;;;;;;9.00;4.45;;;;;;;;;;5031024;28;20029;-82
2022/10/08 04:03:44;;;;;;;8.48;4.40;;;;;;;;;;5031518;28;20137;-81
2022/10/08 04:06:09;;;;;;;8.65;4.50;;;;;;;;;;5030915;28;20053;-80
2022/10/08 04:08:35;;;;;;;10.40;4.68;;;;;;;;;;5031273;28;20063;-80
2022/10/08 04:11:06;;;;;;;10.40;5.13;;;;;;;;;;5030841;28;20056;-82
2022/10/08 04:13:33;;;;;;;7.80;4.93;;;;;;;;;;5031197;28;20030;-78
2022/10/08 04:16:04;;;;;;;7.97;4.85;;;;;;;;;;5030884;28;20108;-80
2022/10/08 04:18:30;;;;;;;10.23;4.93;;;;;;;;;;5030757;28;20079;-78
2022/10/08 04:20:58;;;;;;;8.43;4.80;;;;;;;;;;5030707;28;20029;-79
2022/10/08 04:23:23;;;;;;;9.57;4.72;;;;;;;;;;5030907;28;20053;-82
2022/10/08 04:25:50;;;;;;;9.00;4.75;;;;;;;;;;5030620;28;20056;-80
2022/10/08 04:28:16;;;;;;;8.43;4.60;;;;;;;;;;5030720;28;20030;-80
2022/10/08 04:30:41;;;;;;;10.80;4.97;;;;;;;;;;5046318;28;20112;-84
2022/10/08 04:33:07;;;;;;;13.93;5.35;;;;;;;;;;5050679;28;20025;-82
2022/10/08 04:35:36;;;;;;;14.00;5.10;;;;;;;;;;5050427;28;20033;-82
2022/10/08 04:38:01;;;;;;;12.95;4.78;;;;;;;;;;5051177;28;20021;-83
2022/10/08 04:40:27;;;;;;;14.63;5.22;;;;;;;;;;5050051;28;20390;-77
2022/10/08 04:42:52;;;;;;;11.43;5.03;;;;;;;;;;5050296;28;20108;-80
2022/10/08 04:45:18;;;;;;;13.88;5.15;;;;;;;;;;5050356;28;20497;-79
2022/10/08 04:47:43;;;;;;;13.15;4.88;;;;;;;;;;5050067;28;20017;-80
2022/10/08 04:50:08;;;;;;;12.85;5.15;;;;;;;;;;5050388;28;20033;-78
2022/10/08 04:52:34;;;;;;;15.15;5.65;;;;;;;;;;5050302;28;20381;-80
2022/10/08 04:54:59;;;;;;;13.73;5.68;;;;;;;;;;5050478;28;20032;-80
2022/10/08 04:57:24;;;;;;;14.43;5.68;;;;;;;;;;5050116;28;20122;-80
2022/10/08 04:59:50;;;;;;;13.38;5.95;;;;;;;;;;5049959;28;20029;-80
2022/10/08 05:02:15;;;;;;;12.48;6.20;;;;;;;;;;5049799;28;20526;-81
2022/10/08 05:04:41;;;;;;;12.88;6.70;;;;;;;;;;5050314;28;20029;-82
2022/10/08 05:07:06;;;;;;;12.98;6.57;;;;;;;;;;5049963;28;20028;-83
2022/10/08 05:09:31;;;;;;;12.55;6.60;;;;;;;;;;5050417;28;20099;-82
2022/10/08 05:11:57;;;;;;;17.15;6.78;;;;;;;;;;5050015;28;20453;-83
2022/10/08 05:14:22;;;;;;;14.10;6.45;;;;;;;;;;5050306;28;20032;-83
2022/10/08 05:16:47;;;;;;;12.77;6.63;;;;;;;;;;5050072;28;20040;-79
2022/10/08 05:19:13;;;;;;;13.70;7.25;;;;;;;;;;5050082;28;20041;-81
2022/10/08 05:21:38;;;;;;;12.10;7.05;;;;;;;;;;5049519;28;20029;-78
2022/10/08 05:24:07;;;;;;;15.57;6.78;;;;;;;;;;5050006;28;20052;-82
2022/10/08 05:26:36;;;;;;;15.50;7.45;;;;;;;;;;5049786;28;20377;-80
2022/10/08 05:29:02;;;;;;;15.52;7.70;;;;;;;;;;5050747;28;20029;-83
2022/10/08 05:31:28;;;;;;;13.95;8.13;;;;;;;;;;5050022;28;20031;-78
2022/10/08 05:33:54;;;;;;;14.60;8.05;;;;;;;;;;5050169;28;20025;-80
2022/10/08 05:36:29;;;;;;;17.38;8.07;;;;;;;;;;5049520;28;20510;-80
2022/10/08 05:38:55;;;;;;;15.43;7.40;;;;;;;;;;5049818;28;20522;-78
2022/10/08 05:41:27;;;;;;;17.75;8.32;;;;;;;;;;5049495;28;20132;-81
2022/10/08 05:43:54;;;;;;;15.73;8.20;;;;;;;;;;5031917;28;20032;-78
2022/10/08 05:46:21;;;;;;;14.75;7.68;;;;;;;;;;5049712;28;20079;-80
2022/10/08 05:48:47;;;;;;;13.85;7.47;;;;;;;;;;5049698;28;20050;-80
2022/10/08 05:51:16;;;;;;;15.38;8.00;;;;;;;;;;5049570;28;20463;-80
2022/10/08 05:53:45;;;;;;;18.13;7.47;;;;;;;;;;5049437;28;20040;-81
2022/10/08 05:56:12;;;;;;;18.05;8.38;;;;;;;;;;5032390;28;20377;-76
2022/10/08 05:58:38;;;;;;;18.38;8.27;;;;;;;;;;5050144;28;20028;-76
2022/10/08 06:01:07;;;;;;;20.33;7.72;;;;;;;;;;5049614;28;20102;-77
2022/10/08 06:03:33;;;;;;;17.67;7.55;;;;;;;;;;5049550;28;20033;-77
2022/10/08 06:06:07;;;;;;;17.25;8.15;;;;;;;;;;5049861;28;20021;-77
2022/10/08 06:08:34;;;;;;;16.48;8.00;;;;;;;;;;5049312;28;20025;-74
2022/10/08 06:11:00;;;;;;;19.35;8.38;;;;;;;;;;5049242;28;20045;-79
2022/10/08 06:13:25;;;;;;;18.58;8.30;;;;;;;;;;5031309;28;20029;-77
2022/10/08 06:15:59;;;;;;;20.10;8.10;;;;;;;;;;5049576;28;20032;-76
2022/10/08 06:18:26;;;;;;;16.63;7.78;;;;;;;;;;5053071;28;20428;-78
2022/10/08 06:20:51;;;;;;;16.70;8.38;;;;;;;;;;5053065;28;20086;-80
2022/10/08 06:23:18;;;;;;;14.52;8.43;;;;;;;;;;5052853;28;20017;-81
2022/10/08 06:25:43;;;;;;;18.98;8.05;;;;;;;;;;5052865;28;20029;-81
2022/10/08 06:28:09;;;;;;;18.65;8.80;;;;;;;;;;5052770;28;20031;-76
2022/10/08 06:30:34;;;;;;;17.48;8.25;;;;;;;;;;5052824;28;20043;-77
2022/10/08 06:33:00;;;;;;;18.77;8.07;;;;;;;;;;5052600;28;20076;-81
2022/10/08 06:35:25;;;;;;;21.58;8.82;;;;;;;;;;5053182;28;20036;-80
2022/10/08 06:37:51;;;;;;;22.58;9.13;;;;;;;;;;5052560;28;20582;-81
2022/10/08 06:40:16;;;;;;;18.13;8.55;;;;;;;;;;5052414;28;20063;-78
2022/10/08 06:42:41;;;;;;;19.83;8.88;;;;;;;;;;5052628;28;20058;-80
2022/10/08 06:45:07;;;;;;;21.92;8.75;;;;;;;;;;5052978;28;20025;-80
2022/10/08 06:47:33;;;;;;;16.88;8.15;;;;;;;;;;5052616;28;20100;-80
2022/10/08 06:50:00;;;;;;;19.55;7.90;;;;;;;;;;5052432;28;20029;-81
2022/10/08 06:52:26;;;;;;;19.52;8.00;;;;;;;;;;5052457;28;20037;-79
2022/10/08 06:54:51;;;;;;;17.08;8.20;;;;;;;;;;5052675;28;20037;-79
2022/10/08 06:57:16;;;;;;;15.60;8.05;;;;;;;;;;5052437;28;20029;-81
2022/10/08 06:59:42;;;;;;;17.52;7.75;;;;;;;;;;5052569;28;20094;-77
2022/10/08 07:02:09;;;;;;;19.40;8.55;;;;;;;;;;5051861;28;20089;-76
2022/10/08 07:04:35;;;;;;;20.00;8.50;;;;;;;;;;5034098;28;20147;-76
2022/10/08 07:07:00;;;;;;;18.73;8.10;;;;;;;;;;5052085;28;20104;-81
2022/10/08 07:09:25;;;;;;;19.33;8.45;;;;;;;;;;5052148;28;20025;-80
2022/10/08 07:11:51;;;;;;;17.00;7.72;;;;;;;;;;5052225;28;20072;-81
2022/10/08 07:14:16;;;;;;;15.75;7.30;;;;;;;;;;5051901;28;20033;-78
2022/10/08 07:16:42;;;;;;;18.55;7.88;;;;;;;;;;5052113;28;20079;-78
2022/10/08 07:19:07;;;;;;;18.92;7.22;;;;;;;;;;5051556;28;20078;-76
2022/10/08 07:21:32;;;;;;;20.67;7.38;;;;;;;;;;5051847;28;20083;-76
2022/10/08 07:23:59;;;;;;;14.10;7.20;;;;;;;;;;5051857;28;20029;-78
2022/10/08 07:26:27;;;;;;;18.63;7.32;;;;;;;;;;5051915;28;20033;-78
2022/10/08 07:28:59;;;;;;;16.67;6.50;;;;;;;;;;5050740;28;20036;-80
2022/10/08 07:31:30;;;;;;;11.93;6.55;;;;;;;;;;5051741;28;20021;-79
2022/10/08 07:33:57;;;;;;;14.00;6.72;;;;;;;;;;5051790;28;20511;-79
2022/10/08 07:36:23;;;;;;;19.02;7.30;;;;;;;;;;5051805;28;20504;-76
2022/10/08 07:38:57;;;;;;;17.35;7.13;;;;;;;;;;5051205;28;20029;-78
2022/10/08 07:41:23;;;;;;;15.57;7.05;;;;;;;;;;5051404;28;20045;-80
2022/10/08 07:43:51;;;;;;;18.65;6.78;;;;;;;;;;5055171;28;20028;-85
2022/10/08 07:46:16;;;;;;;17.42;6.88;;;;;;;;;;5053144;28;20025;-81
2022/10/08 07:48:41;;;;;;;17.90;7.25;;;;;;;;;;5052300;28;20028;-82
2022/10/08 07:51:13;;;;;;;17.67;6.75;;;;;;;;;;5051542;28;20059;-76
2022/10/08 07:53:39;;;;;;;19.88;7.20;;;;;;;;;;5051521;28;20029;-78
2022/10/08 07:56:06;;;;;;;14.48;6.70;;;;;;;;;;5051456;28;20036;-77
2022/10/08 07:58:33;;;;;;;18.40;7.25;;;;;;;;;;5051165;28;20052;-81
2022/10/08 08:01:00;;;;;;;17.00;6.93;;;;;;;;;;5033150;28;20100;-77
2022/10/08 08:03:25;;;;;;;16.83;6.78;;;;;;;;;;5050886;28;20104;-75
2022/10/08 08:05:52;;;;;;;17.33;7.00;;;;;;;;;;5051319;28;20128;-80
2022/10/08 08:08:22;;;;;;;17.13;6.60;;;;;;;;;;5051633;28;20037;-78
2022/10/08 08:10:47;;;;;;;10.88;6.45;;;;;;;;;;5050850;28;20036;-82
2022/10/08 08:13:13;;;;;;;16.80;7.05;;;;;;;;;;5050798;28;20142;-78
2022/10/08 08:15:38;;;;;;;15.88;6.20;;;;;;;;;;5051173;28;20025;-82
2022/10/08 08:18:04;;;;;;;18.33;6.53;;;;;;;;;;5048937;28;20037;-77
2022/10/08 08:20:29;;;;;;;14.27;6.80;;;;;;;;;;5051492;28;20032;-78
2022/10/08 08:22:55;;;;;;;12.00;6.65;;;;;;;;;;5061552;28;20041;-77
2022/10/08 08:25:20;;;;;;;14.35;6.55;;;;;;;;;;5062498;28;20021;-78
2022/10/08 08:27:45;;;;;;;14.93;7.22;;;;;;;;;;5061437;28;20312;-78
2022/10/08 08:30:12;;;;;;;19.40;6.75;;;;;;;;;;5061413;28;20029;-78
2022/10/08 08:32:37;;;;;;;14.27;6.43;;;;;;;;;;5061457;28;20090;-76
2022/10/08 08:35:02;;;;;;;13.57;6.68;;;;;;;;;;5043061;28;20033;-75
2022/10/08 08:37:28;;;;;;;10.32;6.30;;;;;;;;;;5043938;28;20027;-78
2022/10/08 08:39:53;;;;;;;14.50;7.88;;;;;;;;;;5061337;28;20051;-76
2022/10/08 08:42:43;;;;;;;16.60;6.45;;;;;;;;;;5061517;28;20053;-75
2022/10/08 08:45:32;;;;;;;15.77;6.37;;;;;;;;;;5060989;28;20109;-76
2022/10/08 08:48:21;;;;;;;11.55;5.97;;;;;;;;;;5060982;28;20025;-75
2022/10/08 08:50:49;;;;;;;13.18;5.80;;;;;;;;;;5061233;28;20070;-76
2022/10/08 08:53:16;;;;;;;14.60;5.80;;;;;;;;;;5060330;28;20099;-76
2022/10/08 08:55:47;;;;;;;11.38;6.22;;;;;;;;;;5061492;28;20362;-76
2022/10/08 08:58:20;;;;;;;18.27;5.97;;;;;;;;;;5060346;28;20079;-75
2022/10/08 09:00:53;;;;;;;13.70;5.75;;;;;;;;;;5061368;28;20025;-76
2022/10/08 09:03:50;;;;;;;13.57;6.03;;;;;;;;;;5040465;28;20328;-75
2022/10/08 09:06:21;;;;;;;14.85;5.63;;;;;;;;;;5031209;28;20112;-75
2022/10/08 09:09:01;;;;;;;10.00;5.25;;;;;;;;;;5060115;28;20029;-76
2022/10/08 09:11:28;;;;;;;8.40;5.07;;;;;;;;;;5060077;28;20427;-74
2022/10/08 09:14:06;;;;;;;11.52;5.20;;;;;;;;;;5059922;28;20329;-75
2022/10/08 09:16:33;;;;;;;10.30;5.30;;;;;;;;;;5061375;28;20040;-75
2022/10/08 09:18:59;;;;;;;9.60;5.38;;;;;;;;;;5061233;28;20036;-78
2022/10/08 09:21:27;;;;;;;10.60;5.28;;;;;;;;;;5060718;28;20033;-79
2022/10/08 09:23:53;;;;;;;10.80;5.30;;;;;;;;;;5059390;28;20090;-78
2022/10/08 09:26:23;;;;;;;13.82;5.72;;;;;;;;;;5055622;28;20300;-77
2022/10/08 09:28:54;;;;;;;12.63;5.18;;;;;;;;;;5052478;28;20217;-76
2022/10/08 09:31:39;;;;;;;13.23;5.25;;;;;;;;;;5048319;28;20083;-76
2022/10/08 09:34:16;;;;;;;13.02;5.90;;;;;;;;;;5043296;28;20040;-75
2022/10/08 09:36:49;;;;;;;14.23;5.22;;;;;;;;;;5061183;28;20037;-78
2022/10/08 09:40:03;;;;;;;10.98;4.90;;;;;;;;;;5060881;28;20037;-78
2022/10/08 09:42:29;;;;;;;12.30;5.30;;;;;;;;;;5051093;28;20240;-77
2022/10/08 09:44:56;;;;;;;18.40;5.60;;;;;;;;;;5043214;28;20095;-79
2022/10/08 09:47:24;;;;;;;15.65;5.75;;;;;;;;;;5043071;28;20221;-79
2022/10/08 09:50:18;;;;;;;10.73;4.78;;;;;;;;;;5060720;28;20056;-84
2022/10/08 09:52:45;;;;;;;8.57;4.72;;;;;;;;;;5059982;28;20029;-82
2022/10/08 09:55:22;;;;;;;12.20;5.30;;;;;;;;;;5063450;28;20025;-78
2022/10/08 09:57:54;;;;;;;15.82;5.20;;;;;;;;;;5063645;28;20023;-74
2022/10/08 10:00:25;;;;;;;11.20;5.60;;;;;;;;;;5062802;28;20326;-74
2022/10/08 10:02:56;;;;;;;10.55;4.82;;;;;;;;;;5041924;28;20025;-75
2022/10/08 10:05:25;;;;;;;12.57;4.93;;;;;;;;;;5063494;28;20043;-75
2022/10/08 10:07:51;;;;;;;10.18;4.68;;;;;;;;;;5063476;28;20063;-75
2022/10/08 10:10:32;;;;;;;11.40;4.70;;;;;;;;;;5062613;28;20029;-75
2022/10/08 10:13:16;;;;;;;11.35;4.97;;;;;;;;;;5061626;28;20021;-74
2022/10/08 10:16:04;;;;;;;11.18;4.90;;;;;;;;;;5063049;28;20370;-74
2022/10/08 10:18:46;;;;;;;11.23;5.00;;;;;;;;;;5062798;28;20411;-75
2022/10/08 10:21:16;;;;;;;11.60;4.78;;;;;;;;;;5052509;28;20313;-75
2022/10/08 10:24:04;;;;;;;12.93;4.75;;;;;;;;;;5063823;28;20096;-75
2022/10/08 10:26:35;;;;;;;9.15;4.55;;;;;;;;;;5064275;28;20048;-77
2022/10/08 10:29:08;;;;;;;13.93;4.68;;;;;;;;;;5063748;28;20118;-74
2022/10/08 10:31:53;;;;;;;11.02;4.63;;;;;;;;;;5063552;28;20102;-74
2022/10/08 10:34:23;;;;;;;10.05;4.50;;;;;;;;;;5063137;28;20097;-74
2022/10/08 10:36:51;;;;;;;12.10;4.85;;;;;;;;;;5064013;28;20052;-74
2022/10/08 10:39:43;;;;;;;11.55;4.90;;;;;;;;;;5064105;28;20151;-76
2022/10/08 10:42:21;;;;;;;8.55;4.60;;;;;;;;;;5063441;28;20040;-76
2022/10/08 10:44:53;;;;;;;10.18;4.07;;;;;;;;;;5063970;28;20020;-77
2022/10/08 10:47:24;;;;;;;11.65;4.78;;;;;;;;;;5062029;28;20033;-77
2022/10/08 10:49:51;;;;;;;10.32;4.50;;;;;;;;;;5061698;28;20216;-77
2022/10/08 10:52:41;;;;;;;12.75;4.43;;;;;;;;;;5063662;28;20023;-76
2022/10/08 10:55:19;;;;;;;11.75;4.35;;;;;;;;;;5063821;28;20040;-77
2022/10/08 10:58:04;;;;;;;10.88;4.45;;;;;;;;;;5063530;28;20021;-77
2022/10/08 11:00:55;;;;;;;17.17;4.50;;;;;;;;;;5062129;28;20048;-77
2022/10/08 11:03:39;;;;;;;11.32;4.47;;;;;;;;;;5063305;28;20048;-76
2022/10/08 11:06:43;;;;;;;11.60;4.30;;;;;;;;;;5045959;28;20313;-77
2022/10/08 11:09:39;;;;;;;12.32;4.32;;;;;;;;;;5028209;28;20100;-75
2022/10/08 11:12:07;;;;;;;14.40;4.63;;;;;;;;;;5051369;28;20029;-76
2022/10/08 11:14:51;;;;;;;12.52;4.60;;;;;;;;;;5063520;28;20086;-76
2022/10/08 11:17:36;;;;;;;11.02;3.95;;;;;;;;;;5043766;28;20036;-75
2022/10/08 11:20:26;;;;;;;10.50;4.20;;;;;;;;;;5061932;28;20017;-74
2022/10/08 11:23:15;;;;;;;11.32;4.22;;;;;;;;;;5063263;28;20028;-76
2022/10/08 11:25:48;;;;;;;9.57;4.25;;;;;;;;;;5061872;28;20041;-74
2022/10/08 11:28:23;;;;;;;11.45;4.10;;;;;;;;;;5063114;28;20316;-74
2022/10/08 11:31:08;;;;;;;11.43;3.75;;;;;;;;;;5062281;28;20033;-77
2022/10/08 11:33:35;;;;;;;10.85;4.35;;;;;;;;;;5043169;28;20035;-73
2022/10/08 11:36:09;;;;;;;13.60;4.57;;;;;;;;;;5063033;28;20035;-76
2022/10/08 11:38:42;;;;;;;9.25;3.97;;;;;;;;;;5063090;28;20363;-75
2022/10/08 11:41:17;;;;;;;7.22;4.05;;;;;;;;;;5060766;28;20053;-84
2022/10/08 11:43:52;;;;;;;12.52;4.53;;;;;;;;;;5062787;28;20045;-78
2022/10/08 11:46:30;;;;;;;9.65;4.28;;;;;;;;;;5062870;28;20013;-78
2022/10/08 11:49:00;;;;;;;13.38;4.47;;;;;;;;;;5062861;28;20063;-79
2022/10/08 11:51:27;;;;;;;;;;;;;;;;;;5063378;28;20025;-74
2022/10/08 11:54:14;;;;;;;11.85;3.65;;;;;;;;;;5062686;28;19913;-76
2022/10/08 11:57:07;;;;;;;11.00;4.18;;;;;;;;;;5062588;28;20029;-78
2022/10/08 11:59:42;;;;;;;8.60;3.97;;;;;;;;;;5062559;28;20029;-77
2022/10/08 12:02:24;;;;;;;11.30;4.00;;;;;;;;;;5060315;28;20049;-80
2022/10/08 12:04:51;;;;;;;11.90;4.28;;;;;;;;;;5059860;28;20317;-78
2022/10/08 12:07:23;;;;;;;10.55;4.10;;;;;;;;;;5060687;28;20025;-78
2022/10/08 12:09:59;;;;;;;8.77;3.40;;;;;;;;;;5060577;28;20058;-75
2022/10/08 12:12:50;;;;;;;10.77;3.53;;;;;;;;;;5062348;28;20031;-75
2022/10/08 12:15:26;;;;;;;12.35;4.03;;;;;;;;;;5060353;28;20031;-78
2022/10/08 12:18:21;;;;;;;8.93;3.72;;;;;;;;;;5061873;28;20054;-75
2022/10/08 12:21:15;;;;;;;14.23;3.80;;;;;;;;;;5040273;28;20041;-73
2022/10/08 12:23:40;;;;;;;7.70;3.30;;;;;;;;;;5039461;28;20035;-73
2022/10/08 12:26:07;;;;;;;8.35;3.40;;;;;;;;;;5041804;28;20049;-73
2022/10/08 12:28:35;;;;;;;11.55;3.67;;;;;;;;;;5041911;28;20044;-72
2022/10/08 12:31:14;;;;;;;9.07;4.05;;;;;;;;;;5040555;28;20276;-75
2022/10/08 12:33:40;;;;;;;14.70;3.95;;;;;;;;;;5057622;28;20056;-75
2022/10/08 12:36:26;;;;;;;12.75;4.47;;;;;;;;;;5041023;28;20418;-75
2022/10/08 12:38:59;;;;;;;11.90;3.55;;;;;;;;;;5048033;28;20033;-73
2022/10/08 12:41:33;;;;;;;7.47;3.72;;;;;;;;;;5061048;28;20055;-75
2022/10/08 12:44:22;;;;;;;8.95;3.92;;;;;;;;;;5061041;28;20093;-75
2022/10/08 12:47:12;;;;;;;13.80;4.35;;;;;;;;;;5055772;28;20099;-79
2022/10/08 12:49:45;;;;;;;12.75;4.10;;;;;;;;;;5053963;28;20573;-75
2022/10/08 12:52:16;;;;;;;9.75;4.32;;;;;;;;;;5047374;28;20063;-75
2022/10/08 12:54:48;;;;;;;11.98;4.18;;;;;;;;;;5054816;28;20056;-74
2022/10/08 12:57:20;;;;;;;12.70;4.18;;;;;;;;;;5047388;28;20042;-75
2022/10/08 12:59:46;;;;;;;15.70;3.90;;;;;;;;;;5049907;28;20017;-75
2022/10/08 13:02:26;;;;;;;12.43;4.32;;;;;;;;;;5047332;28;20052;-73
2022/10/08 13:04:51;;;;;;;12.90;3.80;;;;;;;;;;5030696;28;20033;-75
2022/10/08 13:07:28;;;;;;;8.48;3.60;;;;;;;;;;5030486;28;20044;-75
2022/10/08 13:09:58;;;;;;;8.18;3.90;;;;;;;;;;5048269;28;20028;-71
2022/10/08 13:12:24;;;;;;;;;;;;;;;;;;5048926;28;20040;-72
2022/10/08 13:15:04;;;;;;;10.05;4.10;;;;;;;;;;5049959;28;19913;-73
2022/10/08 13:17:32;;;;;;;9.07;3.90;;;;;;;;;;5049818;28;20053;-73
2022/10/08 13:20:10;;;;;;;14.80;4.10;;;;;;;;;;5050054;28;20067;-73
2022/10/08 13:22:35;;;;;;;12.32;4.32;;;;;;;;;;5049587;28;20145;-73
2022/10/08 13:25:01;;;;;;;9.70;3.70;;;;;;;;;;5032082;28;20576;-73
2022/10/08 13:27:31;;;;;;;9.77;4.03;;;;;;;;;;5048894;28;20029;-72
2022/10/08 13:29:58;;;;;;;8.20;3.88;;;;;;;;;;5049835;28;20056;-73
2022/10/08 13:32:27;;;;;;;10.77;3.75;;;;;;;;;;5049206;28;20695;-73
2022/10/08 13:35:00;;;;;;;9.13;3.42;;;;;;;;;;5049847;28;20040;-74
2022/10/08 13:37:39;;;;;;;13.35;3.70;;;;;;;;;;5049484;28;20032;-73
2022/10/08 13:40:11;;;;;;;11.07;3.78;;;;;;;;;;5049833;28;20029;-73
2022/10/08 13:42:46;;;;;;;11.95;3.70;;;;;;;;;;5049029;28;20075;-73
2022/10/08 13:45:17;;;;;;;11.57;3.83;;;;;;;;;;5049650;28;20029;-73
2022/10/08 13:47:43;;;;;;;18.08;3.90;;;;;;;;;;5049200;28;20025;-73
2022/10/08 13:50:08;;;;;;;11.48;3.70;;;;;;;;;;5049649;28;20029;-73
2022/10/08 13:52:35;;;;;;;13.23;3.78;;;;;;;;;;5031491;28;20021;-72
2022/10/08 13:55:04;;;;;;;13.27;3.58;;;;;;;;;;5049642;28;20021;-73
2022/10/08 13:57:29;;;;;;;9.95;3.33;;;;;;;;;;5049399;28;20032;-73
2022/10/08 13:59:54;;;;;;;8.77;3.80;;;;;;;;;;5049563;28;20025;-73
2022/10/08 14:02:20;;;;;;;6.53;3.47;;;;;;;;;;5049095;28;20025;-73
2022/10/08 14:04:46;;;;;;;9.38;3.40;;;;;;;;;;5049399;28;20438;-73
2022/10/08 14:07:27;;;;;;;9.40;3.78;;;;;;;;;;5049250;28;20131;-73
2022/10/08 14:09:55;;;;;;;10.60;3.47;;;;;;;;;;5049619;28;20029;-76
2022/10/08 14:12:25;;;;;;;11.55;3.70;;;;;;;;;;5049294;28;20147;-73
2022/10/08 14:14:51;;;;;;;8.30;3.75;;;;;;;;;;5031677;28;20062;-74
2022/10/08 14:17:16;;;;;;;11.27;3.60;;;;;;;;;;5049132;28;20161;-73
2022/10/08 14:19:42;;;;;;;11.45;3.90;;;;;;;;;;5049472;28;20126;-73
2022/10/08 14:22:10;;;;;;;12.52;3.60;;;;;;;;;;5048995;28;20749;-74
2022/10/08 14:24:35;;;;;;;12.07;3.97;;;;;;;;;;5049185;28;20082;-75
2022/10/08 14:27:00;;;;;;;13.52;4.13;;;;;;;;;;5049048;28;20021;-75
2022/10/08 14:29:26;;;;;;;10.38;3.95;;;;;;;;;;5049491;28;20021;-75
2022/10/08 14:31:51;;;;;;;12.63;4.03;;;;;;;;;;5049376;28;20036;-75
2022/10/08 14:34:16;;;;;;;9.30;3.90;;;;;;;;;;5049094;28;20552;-74
2022/10/08 14:36:42;;;;;;;12.30;3.88;;;;;;;;;;5049266;28;20025;-75
2022/10/08 14:39:08;;;;;;;10.57;3.90;;;;;;;;;;5052099;28;20032;-74
2022/10/08 14:41:34;;;;;;;10.20;3.65;;;;;;;;;;5052611;28;20116;-74
2022/10/08 14:44:00;;;;;;;12.13;3.95;;;;;;;;;;5052494;28;20144;-74
2022/10/08 14:46:25;;;;;;;12.85;4.03;;;;;;;;;;5052711;28;20025;-74
2022/10/08 14:48:51;;;;;;;9.63;3.85;;;;;;;;;;5034474;28;20079;-74
2022/10/08 14:51:16;;;;;;;10.30;4.03;;;;;;;;;;5052984;28;20025;-75
2022/10/08 14:53:41;;;;;;;13.32;3.90;;;;;;;;;;5052117;28;20021;-74
2022/10/08 14:56:07;;;;;;;9.32;3.75;;;;;;;;;;5052425;28;20032;-75
2022/10/08 14:58:33;;;;;;;12.85;4.03;;;;;;;;;;5052156;28;20470;-74
2022/10/08 15:00:58;;;;;;;9.40;3.78;;;;;;;;;;5052415;28;20028;-74